Impacts METAR Board
IDs:

KSAN - San Diego Intl Arpt, CA, US

Updated at: 2100 UTC 20 Jun 2019
Potential Impact None Slight Moderate High
Time 20/09Z 20/10Z 20/11Z 20/12Z 20/13Z 20/14Z 20/15Z 20/16Z 20/17Z 20/18Z 20/19Z 20/20Z 20/21Z
Temp63 63 63 63 63 63 63 63 64 65 66 67 67
Dewpt57 57 57 57 56 56 56 55 55 55 56 56 57
Altim29.97 29.96 29.95 29.95 29.95 29.96 29.97 29.99 29.99 30.00 30.00 29.99 29.98
VIS10 10 10 10 10 10 10 10 10 10 10 10 10
CIG15 15 15 16 16 16 16 16 17 18 18 18 18
CoverOVCOVCOVCOVCOVCOVCOVCOVCOVCOVCOVCBKNBKN
FltCatMVFRMVFRMVFRMVFRMVFRMVFRMVFRMVFRMVFRMVFRMVFRMVFRMVFR
WX--------------------------
WDir2302400220220230230200240200230210200
WSpd4 3 0 4 5 6 3 5 4 6 7 8 7
WGst-- -- -- -- -- -- -- -- -- -- -- -- --
Raw hourly METARs
KSAN 200851Z 23004KT 10SM OVC015 17/14 A2997 RMK AO2 SLP169 T01720139 $
KSAN 200951Z 24003KT 10SM OVC015 17/14 A2996 RMK AO2 SLP166 T01720139 $
KSAN 201051Z 00000KT 10SM OVC015 17/14 A2995 RMK AO2 SLP163 T01720139 $
KSAN 201151Z 22004KT 10SM OVC016 17/14 A2995 RMK AO2 SLP163 T01720139 10178 20172 56007 $
KSAN 201251Z 22005KT 10SM OVC016 17/13 A2995 RMK AO2 SLP163 T01720133 $
KSAN 201351Z 23006KT 10SM OVC016 17/13 A2996 RMK AO2 SLP166 T01720133 $
KSAN 201451Z 23003KT 10SM OVC016 17/13 A2997 RMK AO2 SLP169 T01720133 53007 $
KSAN 201551Z 20005KT 10SM OVC016 17/13 A2999 RMK AO2 PRESRR SLP176 T01720128 $
KSAN 201651Z 24004KT 10SM OVC017 18/13 A2999 RMK AO2 SLP176 T01780128 $
KSAN 201751Z 20006KT 10SM OVC018 18/13 A3000 RMK AO2 SLP180 T01830128 10183 20172 51010 $
KSAN 201851Z 23007KT 10SM BKN018 OVC024 19/13 A3000 RMK AO2 SLP180 T01890133 $
KSAN 201951Z 21008KT 10SM BKN018 BKN024 19/13 A2999 RMK AO2 SLP176 T01940133 $
KSAN 202051Z 20007KT 10SM BKN018 BKN024 19/14 A2998 RMK AO2 SLP173 T01940139 58007 $



Page loaded:  21:35 UTC  |   02:35 PM Pacific  |   03:35 PM Mountain  |   04:35 PM Central  |   05:35 PM Eastern

 

ADVISORIES

FORECASTS

FORECASTS

OBSERVATIONS

USER TOOLS

ABOUT US